createdAt,value
2023-12-05T00:03:55.039Z,7.52
2023-12-05T00:08:59.786Z,6.99
2023-12-05T00:14:02.411Z,7.29
2023-12-05T00:19:05.066Z,6.99
2023-12-05T00:24:09.288Z,7.00
2023-12-05T00:29:11.976Z,7.54
2023-12-05T00:34:14.622Z,7.53
2023-12-05T00:39:18.767Z,7.68
2023-12-05T00:44:21.481Z,7.62
2023-12-05T00:49:24.189Z,7.56
2023-12-05T00:54:28.686Z,7.54
2023-12-05T00:59:31.324Z,7.70
2023-12-05T01:04:34.503Z,7.86
2023-12-05T01:09:38.666Z,7.72
2023-12-05T01:14:41.431Z,7.60
2023-12-05T01:19:44.015Z,7.78
2023-12-05T01:24:54.857Z,7.71
2023-12-05T01:29:57.473Z,7.74
2023-12-05T01:35:00.209Z,7.60
2023-12-05T01:40:05.529Z,7.68
2023-12-05T01:45:10.757Z,7.79
2023-12-05T01:50:16.322Z,7.80
2023-12-05T01:55:22.397Z,7.90
2023-12-05T02:00:26.979Z,7.90
2023-12-05T02:05:30.418Z,7.73
2023-12-05T02:10:35.020Z,7.76
2023-12-05T02:15:38.449Z,7.86
2023-12-05T02:20:48.649Z,7.81
2023-12-05T02:26:08.921Z,7.70
2023-12-05T02:31:13.279Z,7.87
2023-12-05T02:36:22.800Z,7.70
2023-12-05T02:41:30.607Z,8.00
2023-12-05T02:46:35.526Z,7.98
2023-12-05T02:51:38.259Z,7.64
2023-12-05T02:56:41.002Z,7.80
2023-12-05T03:01:45.193Z,7.82
2023-12-05T03:06:47.926Z,7.59
2023-12-05T03:11:50.602Z,7.50
2023-12-05T03:16:54.725Z,7.36
2023-12-05T03:21:58.155Z,7.65
2023-12-05T03:27:00.867Z,7.36
2023-12-05T03:32:05.412Z,7.53
2023-12-05T03:37:08.554Z,7.51
2023-12-05T03:42:11.298Z,7.68
2023-12-05T03:47:15.416Z,7.40
2023-12-05T03:52:18.151Z,7.64
2023-12-05T03:57:20.879Z,7.70
2023-12-05T04:02:26.150Z,7.63
2023-12-05T04:07:28.867Z,7.14
2023-12-05T04:12:33.696Z,7.71
2023-12-05T04:17:37.819Z,7.57
2023-12-05T04:22:41.194Z,7.69
2023-12-05T04:27:44.861Z,7.56
2023-12-05T04:32:49.236Z,7.22
2023-12-05T04:37:52.065Z,7.87
2023-12-05T04:42:55.060Z,7.98
2023-12-05T04:48:00.394Z,7.71
2023-12-05T04:53:04.545Z,8.08
2023-12-05T04:58:07.356Z,8.24
2023-12-05T05:03:12.829Z,8.03
2023-12-05T05:08:15.886Z,8.17
2023-12-05T05:13:19.783Z,7.90
2023-12-05T05:18:26.665Z,8.22
2023-12-05T05:23:29.574Z,7.99
2023-12-05T05:28:32.595Z,8.12
2023-12-05T05:33:37.348Z,7.99
2023-12-05T05:38:40.349Z,8.10
2023-12-05T05:43:43.326Z,7.97
2023-12-05T05:48:47.678Z,7.67
2023-12-05T05:53:50.598Z,8.02
2023-12-05T05:58:53.381Z,8.27
2023-12-05T06:03:58.774Z,8.39
2023-12-05T06:09:05.331Z,7.65
2023-12-05T06:14:09.960Z,8.38
2023-12-05T06:19:13.989Z,8.50
2023-12-05T06:24:16.965Z,8.41
2023-12-05T06:29:19.648Z,8.16
2023-12-05T06:34:25.231Z,8.67
2023-12-05T06:39:28.573Z,8.18
2023-12-05T06:44:33.333Z,8.48
2023-12-05T06:49:39.693Z,8.41
2023-12-05T06:54:51.209Z,8.31
2023-12-05T06:59:54.370Z,7.46
2023-12-05T07:04:59.357Z,8.46
2023-12-05T07:10:03.265Z,8.61
2023-12-05T07:15:16.094Z,8.08
2023-12-05T07:20:23.167Z,8.77
2023-12-05T07:25:25.926Z,9.07
2023-12-05T07:30:28.908Z,7.59
2023-12-05T07:35:33.480Z,9.09
2023-12-05T07:40:36.298Z,8.99
2023-12-05T07:45:39.015Z,8.79
2023-12-05T07:50:44.948Z,9.34
2023-12-05T07:55:51.279Z,9.28
2023-12-05T08:00:53.995Z,9.18
2023-12-05T08:05:58.034Z,9.11
2023-12-05T08:11:00.861Z,8.78
2023-12-05T08:16:04.196Z,8.96
2023-12-05T08:21:09.061Z,9.40
2023-12-05T08:26:12.278Z,9.33
2023-12-05T08:31:15.278Z,9.07
2023-12-05T08:36:20.450Z,8.85
2023-12-05T08:41:23.298Z,9.21
2023-12-05T08:46:26.036Z,9.10
2023-12-05T08:51:32.876Z,8.70
2023-12-05T08:56:35.683Z,9.15
2023-12-05T09:01:40.291Z,9.25
2023-12-05T09:06:44.905Z,9.17
2023-12-05T09:11:48.310Z,8.87
2023-12-05T09:16:51.089Z,9.49
2023-12-05T09:36:32.170Z,9.33
2023-12-05T09:41:43.214Z,9.73
2023-12-05T09:46:50.074Z,9.68
2023-12-05T09:51:54.695Z,9.89
2023-12-05T10:02:20.850Z,9.83
2023-12-05T10:07:28.122Z,10.27
2023-12-05T10:12:30.969Z,10.15
2023-12-05T10:17:35.558Z,10.39
2023-12-05T10:22:41.770Z,10.43
2023-12-05T10:27:44.614Z,10.44
2023-12-05T10:32:47.618Z,10.17
2023-12-05T10:37:54.202Z,10.60
2023-12-05T10:42:58.808Z,10.48
2023-12-05T10:48:01.705Z,10.02
2023-12-05T10:53:06.342Z,10.28
2023-12-05T11:03:27.852Z,10.42
2023-12-05T11:08:34.195Z,10.22
2023-12-05T11:13:44.782Z,10.44
2023-12-05T11:18:52.151Z,10.12
2023-12-05T11:24:13.581Z,10.43
2023-12-05T11:29:29.639Z,10.49
2023-12-05T11:35:06.961Z,10.34
2023-12-05T11:40:12.043Z,10.55
2023-12-05T11:45:26.132Z,10.52
2023-12-05T11:56:01.238Z,10.52
2023-12-05T12:01:08.061Z,10.60
2023-12-05T12:06:12.533Z,10.07
2023-12-05T12:11:17.799Z,9.82
2023-12-05T12:16:27.161Z,9.79
2023-12-05T12:21:31.783Z,9.58
2023-12-05T12:26:55.286Z,9.16
2023-12-05T12:46:37.067Z,8.85
2023-12-05T12:51:42.138Z,8.78
2023-12-05T12:56:45.483Z,8.37
2023-12-05T13:01:52.495Z,8.39
2023-12-05T13:06:55.955Z,8.35
2023-12-05T13:11:59.097Z,8.26
2023-12-05T13:17:08.668Z,8.33
2023-12-05T13:22:11.529Z,8.16
2023-12-05T13:27:14.829Z,8.48
2023-12-05T13:32:18.892Z,8.00
2023-12-05T13:37:21.584Z,7.49
2023-12-05T13:42:24.522Z,7.84
2023-12-05T13:47:53.573Z,7.69
2023-12-05T13:52:59.953Z,7.67
2023-12-05T13:58:03.990Z,7.49
2023-12-05T14:03:12.031Z,7.72
2023-12-05T14:08:17.064Z,7.08
2023-12-05T14:13:20.154Z,5.38
2023-12-05T14:18:37.613Z,5.88
2023-12-05T14:23:46.803Z,6.81
2023-12-05T14:28:51.893Z,7.25
2023-12-05T14:33:56.171Z,7.86
2023-12-05T14:44:28.608Z,8.01
2023-12-05T14:49:39.118Z,7.83
2023-12-05T14:54:41.953Z,7.28
2023-12-05T14:59:48.674Z,7.27
2023-12-05T15:04:59.999Z,7.00
2023-12-05T15:10:10.196Z,6.81
2023-12-05T15:29:05.159Z,4.60
2023-12-05T15:34:08.203Z,6.63
2023-12-05T15:39:11.464Z,6.56
2023-12-05T15:44:28.932Z,5.90
2023-12-05T15:49:35.242Z,7.30
2023-12-05T15:54:42.063Z,7.26
2023-12-05T15:59:52.922Z,7.55
2023-12-05T16:05:02.191Z,6.52
2023-12-05T16:10:18.887Z,6.21
2023-12-05T16:15:28.443Z,6.41
2023-12-05T16:20:31.223Z,6.72
2023-12-05T16:25:34.182Z,6.59
2023-12-05T16:30:47.112Z,6.31
2023-12-05T16:36:06.357Z,5.11
2023-12-05T16:41:31.386Z,3.95
2023-12-05T16:46:37.293Z,5.89
2023-12-05T16:51:40.201Z,6.20
2023-12-05T16:56:44.681Z,6.23
2023-12-05T17:01:49.209Z,4.46
2023-12-05T17:07:03.850Z,6.18
2023-12-05T17:12:12.939Z,5.09
2023-12-05T17:17:20.803Z,6.63
2023-12-05T17:22:30.762Z,6.69
2023-12-05T17:27:33.714Z,6.62
2023-12-05T17:32:47.111Z,6.65
2023-12-05T17:37:50.380Z,5.83
2023-12-05T17:42:53.818Z,5.83
2023-12-05T17:47:58.534Z,5.92
2023-12-05T17:53:01.409Z,4.61
2023-12-05T18:17:11.203Z,6.94
2023-12-05T18:22:15.838Z,7.10
2023-12-05T18:27:18.758Z,7.00
2023-12-05T18:32:22.153Z,6.91
2023-12-05T18:37:26.559Z,7.22
2023-12-05T18:42:29.476Z,7.07
2023-12-05T18:47:34.052Z,6.64
2023-12-05T18:52:38.704Z,7.04
2023-12-05T18:57:43.297Z,7.06
2023-12-05T19:02:46.344Z,7.27
2023-12-05T19:07:50.627Z,7.38
2023-12-05T19:12:53.286Z,7.15
2023-12-05T19:17:55.925Z,6.94
2023-12-05T19:23:00.117Z,7.22
2023-12-05T19:28:03.138Z,7.06
2023-12-05T19:33:05.952Z,7.24
2023-12-05T19:38:10.034Z,7.10
2023-12-05T19:43:13.360Z,7.04
2023-12-05T19:48:16.007Z,7.04
2023-12-05T19:53:21.965Z,7.14
2023-12-05T19:58:25.160Z,7.15
2023-12-05T20:03:27.824Z,6.98
2023-12-05T20:08:31.989Z,6.53
2023-12-05T20:13:34.727Z,6.39
2023-12-05T20:18:37.482Z,6.70
2023-12-05T20:23:41.551Z,6.87
2023-12-05T20:28:44.254Z,6.72
2023-12-05T20:33:47.450Z,6.78
2023-12-05T20:38:51.470Z,6.84
2023-12-05T20:43:54.863Z,6.64
2023-12-05T20:48:57.809Z,6.77
2023-12-05T20:54:01.871Z,6.69
2023-12-05T20:59:04.630Z,6.65
2023-12-05T21:04:08.134Z,6.62
2023-12-05T21:09:13.732Z,6.61
2023-12-05T21:14:16.912Z,6.68
2023-12-05T21:19:19.579Z,6.77
2023-12-05T21:24:23.517Z,6.69
2023-12-05T21:29:26.091Z,6.80
2023-12-05T21:34:32.528Z,6.83
2023-12-05T21:39:36.603Z,6.63
2023-12-05T21:44:40.666Z,6.70
2023-12-05T21:49:43.317Z,6.72
2023-12-05T21:54:47.428Z,6.86
2023-12-05T21:59:50.298Z,6.98
2023-12-05T22:04:53.111Z,6.48
2023-12-05T22:09:57.563Z,6.41
2023-12-05T22:15:00.388Z,6.20
2023-12-05T22:20:03.175Z,6.46
2023-12-05T22:25:07.959Z,6.46
2023-12-05T22:30:12.054Z,6.45
2023-12-05T22:35:14.922Z,6.46
2023-12-05T22:40:19.179Z,6.30
2023-12-05T22:45:22.033Z,6.50
2023-12-05T22:50:24.869Z,6.65
2023-12-05T22:55:29.614Z,6.59
2023-12-05T23:00:32.315Z,6.80
2023-12-05T23:05:35.252Z,6.69
2023-12-05T23:10:39.820Z,6.40
2023-12-05T23:15:42.456Z,6.48
2023-12-05T23:20:46.163Z,6.39
2023-12-05T23:25:50.311Z,6.39
2023-12-05T23:30:53.066Z,6.35
2023-12-05T23:35:57.817Z,6.50
2023-12-05T23:41:01.855Z,6.35
2023-12-05T23:46:04.793Z,6.44
2023-12-05T23:51:07.441Z,6.53
2023-12-05T23:56:12.028Z,6.49
